createdAt,value
2018-06-30T00:01:03.363Z,26.10
2018-06-30T00:06:07.055Z,26.00
2018-06-30T00:11:10.679Z,26.00
2018-06-30T00:16:14.303Z,26.10
2018-06-30T00:21:18.099Z,26.10
2018-06-30T00:26:21.689Z,26.20
2018-06-30T00:31:25.359Z,26.10
2018-06-30T00:36:29.109Z,26.10
2018-06-30T00:41:32.930Z,26.10
2018-06-30T00:46:36.514Z,26.10
2018-06-30T00:51:40.266Z,26.10
2018-06-30T00:56:43.888Z,26.00
2018-06-30T01:01:47.487Z,26.00
2018-06-30T01:06:51.446Z,26.00
2018-06-30T01:11:55.177Z,26.00
2018-06-30T01:22:02.578Z,26.00
2018-06-30T01:27:06.189Z,26.00
2018-06-30T01:32:09.882Z,26.00
2018-06-30T01:37:13.674Z,26.00
2018-06-30T01:47:21.714Z,25.90
2018-06-30T01:52:25.473Z,25.90
2018-06-30T01:57:29.147Z,25.90
2018-06-30T02:02:32.804Z,25.90
2018-06-30T02:07:36.377Z,25.90
2018-06-30T02:12:40.019Z,25.90
2018-06-30T02:17:43.626Z,25.90
2018-06-30T02:22:47.365Z,25.90
2018-06-30T02:27:51.107Z,25.90
2018-06-30T02:32:54.714Z,25.90
2018-06-30T02:53:09.436Z,25.90
2018-06-30T02:58:13.225Z,25.80
2018-06-30T03:03:16.967Z,25.80
2018-06-30T03:08:20.753Z,25.80
2018-06-30T03:18:27.725Z,25.80
2018-06-30T03:23:31.385Z,25.80
2018-06-30T03:28:35.018Z,25.80
2018-06-30T03:38:42.217Z,25.80
2018-06-30T03:43:45.829Z,25.80
2018-06-30T03:48:49.808Z,25.80
2018-06-30T03:53:53.426Z,25.80
2018-06-30T03:58:58.190Z,25.80
2018-06-30T04:04:01.783Z,25.80
2018-06-30T04:09:09.660Z,25.80
2018-06-30T04:14:13.297Z,25.90
2018-06-30T04:19:17.140Z,25.90
2018-06-30T04:24:20.815Z,26.00
2018-06-30T04:29:24.644Z,26.00
2018-06-30T04:34:28.371Z,26.10
2018-06-30T04:39:32.172Z,26.10
2018-06-30T04:44:36.008Z,26.20
2018-06-30T04:49:39.792Z,26.20
2018-06-30T04:54:43.396Z,26.20
2018-06-30T05:04:50.292Z,26.30
2018-06-30T05:09:54.084Z,26.30
2018-06-30T05:14:57.998Z,26.30
2018-06-30T05:20:01.937Z,26.30
2018-06-30T05:25:06.083Z,26.40
2018-06-30T05:30:10.017Z,26.40
2018-06-30T05:40:17.110Z,26.50
2018-06-30T05:45:21.978Z,26.50
2018-06-30T05:50:25.681Z,26.50
2018-06-30T05:55:29.367Z,26.50
2018-06-30T06:00:32.981Z,26.50
2018-06-30T06:10:40.053Z,26.50
2018-06-30T06:15:43.591Z,26.50
2018-06-30T06:20:47.161Z,26.40
2018-06-30T06:25:51.041Z,26.40
2018-06-30T06:30:54.791Z,26.40
2018-06-30T06:35:58.452Z,26.40
2018-06-30T06:41:02.913Z,26.50
2018-06-30T06:46:07.236Z,26.50
2018-06-30T06:51:10.832Z,26.50
2018-06-30T06:56:15.851Z,26.50
2018-06-30T07:01:20.360Z,26.50
2018-06-30T07:11:27.574Z,25.90
2018-06-30T07:16:31.474Z,25.10
2018-06-30T07:26:38.433Z,24.90
2018-06-30T07:31:42.279Z,24.80
2018-06-30T07:36:45.968Z,24.70
2018-06-30T07:41:49.973Z,24.60
2018-06-30T07:46:53.751Z,24.60
2018-06-30T07:57:01.151Z,25.00
2018-06-30T08:02:05.063Z,25.00
2018-06-30T08:07:08.711Z,25.00
2018-06-30T08:12:12.423Z,25.00
2018-06-30T08:17:16.124Z,25.10
2018-06-30T08:22:20.877Z,25.20
2018-06-30T08:27:24.828Z,25.20
2018-06-30T08:32:28.460Z,25.20
2018-06-30T08:47:38.987Z,25.50
2018-06-30T08:52:42.890Z,25.60
2018-06-30T08:57:46.549Z,25.70
2018-06-30T09:02:50.147Z,25.70
2018-06-30T09:07:53.786Z,25.80
2018-06-30T09:12:57.455Z,25.80
2018-06-30T09:18:01.067Z,25.90
2018-06-30T09:23:04.780Z,25.90
2018-06-30T09:28:08.516Z,25.90
2018-06-30T09:33:12.226Z,25.90
2018-06-30T09:38:15.895Z,25.80
2018-06-30T09:53:26.415Z,25.90
2018-06-30T09:58:30.237Z,25.90
2018-06-30T10:03:33.841Z,26.00
2018-06-30T10:08:37.397Z,26.10
2018-06-30T10:18:44.614Z,26.10
2018-06-30T10:23:48.233Z,26.10
2018-06-30T10:28:51.892Z,26.10
2018-06-30T10:33:55.526Z,26.20
2018-06-30T10:38:59.256Z,26.00
2018-06-30T10:44:02.861Z,26.00
2018-06-30T10:49:07.571Z,26.00
2018-06-30T10:54:11.218Z,26.00
2018-06-30T10:59:14.868Z,26.10
2018-06-30T11:04:18.534Z,26.00
2018-06-30T11:09:22.468Z,26.00
2018-06-30T11:19:29.366Z,26.00
2018-06-30T11:24:33.077Z,26.00
2018-06-30T11:29:36.691Z,26.00
2018-06-30T11:34:40.444Z,26.00
2018-06-30T11:39:44.294Z,26.00
2018-06-30T11:44:47.952Z,25.90
2018-06-30T11:49:51.732Z,25.90
2018-06-30T11:54:55.907Z,26.00
2018-06-30T11:59:59.540Z,26.00
2018-06-30T12:05:03.264Z,26.00
2018-06-30T12:10:07.486Z,26.00
2018-06-30T12:15:11.157Z,26.10
2018-06-30T12:20:14.843Z,26.10
2018-06-30T12:25:18.495Z,26.10
2018-06-30T12:30:22.412Z,26.20
2018-06-30T12:35:26.201Z,26.20
2018-06-30T12:40:29.904Z,26.30
2018-06-30T12:45:33.480Z,26.30
2018-06-30T12:50:37.469Z,26.30
2018-06-30T12:55:41.116Z,26.30
2018-06-30T13:00:45.109Z,26.30
2018-06-30T13:05:48.814Z,26.40
2018-06-30T13:10:52.435Z,26.40
2018-06-30T13:15:56.030Z,26.20
2018-06-30T13:20:59.681Z,26.30
2018-06-30T13:26:03.578Z,26.40
2018-06-30T13:31:07.363Z,26.40
2018-06-30T13:36:11.145Z,26.40
2018-06-30T13:41:14.858Z,26.40
2018-06-30T13:46:18.709Z,26.40
2018-06-30T13:51:22.607Z,26.50
2018-06-30T13:56:26.220Z,26.50
2018-06-30T14:01:29.807Z,26.50
2018-06-30T14:06:33.480Z,26.60
2018-06-30T14:11:37.606Z,26.50
2018-06-30T14:16:41.228Z,26.50
2018-06-30T14:21:45.082Z,26.50
2018-06-30T14:31:52.196Z,26.50
2018-06-30T14:41:59.373Z,26.40
2018-06-30T14:47:03.181Z,26.40
2018-06-30T14:52:06.927Z,26.40
2018-06-30T14:57:10.732Z,26.40
2018-06-30T15:02:14.385Z,26.30
2018-06-30T15:07:18.301Z,26.20
2018-06-30T15:12:21.954Z,26.20
2018-06-30T15:22:29.360Z,26.10
2018-06-30T15:27:33.041Z,26.00
2018-06-30T15:32:36.828Z,26.00
2018-06-30T15:37:40.458Z,26.00
2018-06-30T15:42:44.196Z,26.00
2018-06-30T15:57:54.672Z,26.00
2018-06-30T16:02:58.317Z,25.90
2018-06-30T16:08:01.941Z,25.90
2018-06-30T16:13:05.913Z,25.90
2018-06-30T16:18:09.638Z,25.90
2018-06-30T16:23:14.348Z,26.10
2018-06-30T16:28:19.020Z,26.20
2018-06-30T16:33:23.527Z,26.30
2018-06-30T16:38:27.952Z,26.40
2018-06-30T16:43:32.407Z,26.40
2018-06-30T16:48:37.168Z,26.40
2018-06-30T16:53:41.609Z,26.50
2018-06-30T16:58:46.078Z,26.50
2018-06-30T17:03:50.593Z,26.40
2018-06-30T17:08:55.324Z,26.40
2018-06-30T17:13:59.796Z,26.40
2018-06-30T17:19:03.538Z,26.40
2018-06-30T17:24:07.141Z,26.50
2018-06-30T17:29:10.892Z,26.50
2018-06-30T17:39:17.882Z,26.40
2018-06-30T17:44:21.673Z,26.40
2018-06-30T17:49:25.260Z,26.40
2018-06-30T17:54:28.839Z,26.40
2018-06-30T17:59:32.452Z,26.40
2018-06-30T18:04:36.157Z,26.50
2018-06-30T18:09:39.840Z,26.50
2018-06-30T18:14:43.520Z,26.40
2018-06-30T18:19:47.596Z,26.40
2018-06-30T18:24:51.282Z,26.40
2018-06-30T18:29:55.300Z,26.40
2018-06-30T18:34:59.476Z,26.40
2018-06-30T18:40:03.140Z,26.40
2018-06-30T18:45:07.553Z,26.40
2018-06-30T18:50:11.156Z,26.40
2018-06-30T18:55:14.780Z,26.40
2018-06-30T19:00:18.493Z,26.40
2018-06-30T19:10:25.524Z,26.40
2018-06-30T19:15:29.143Z,26.20
2018-06-30T19:20:32.803Z,26.20
2018-06-30T19:25:36.395Z,26.10
2018-06-30T19:30:40.122Z,26.00
2018-06-30T19:35:44.026Z,26.00
2018-06-30T19:40:47.689Z,26.00
2018-06-30T19:45:51.362Z,25.90
2018-06-30T19:50:55.597Z,25.90
2018-06-30T19:55:59.931Z,25.80
2018-06-30T20:01:03.541Z,25.80
2018-06-30T20:06:07.677Z,25.70
2018-06-30T20:11:11.818Z,25.70
2018-06-30T20:16:15.425Z,25.60
2018-06-30T20:21:19.077Z,25.60
2018-06-30T20:26:22.684Z,25.80
2018-06-30T20:31:26.293Z,25.80
2018-06-30T20:36:29.925Z,25.70
2018-06-30T20:41:33.589Z,25.70
2018-06-30T20:46:37.313Z,25.60
2018-06-30T20:51:40.964Z,25.50
2018-06-30T20:56:44.645Z,25.50
2018-06-30T21:01:49.688Z,25.40
2018-06-30T21:06:54.044Z,25.40
2018-06-30T21:17:01.580Z,25.30
2018-06-30T21:27:09.761Z,25.30
2018-06-30T21:32:14.140Z,25.30
2018-06-30T21:37:18.384Z,25.20
2018-06-30T21:42:21.967Z,25.20
2018-06-30T21:47:25.665Z,25.10
2018-06-30T21:52:29.336Z,25.10
2018-06-30T21:57:33.557Z,25.10
2018-06-30T22:02:37.542Z,25.00
2018-06-30T22:07:41.798Z,25.00
2018-06-30T22:12:45.846Z,25.00
2018-06-30T22:17:49.626Z,25.00
2018-06-30T22:22:53.352Z,25.00
2018-06-30T22:27:57.247Z,24.90
2018-06-30T22:33:01.244Z,24.90
2018-06-30T22:38:05.392Z,24.90
2018-06-30T22:43:09.005Z,24.90
2018-06-30T22:48:14.389Z,24.90
2018-06-30T22:53:18.337Z,24.90
2018-06-30T22:58:22.312Z,24.80
2018-06-30T23:03:25.985Z,24.80
2018-06-30T23:08:29.595Z,24.80
2018-06-30T23:13:33.214Z,24.80
2018-06-30T23:18:36.785Z,24.80
2018-06-30T23:23:40.452Z,24.80
2018-06-30T23:28:44.213Z,24.80
2018-06-30T23:33:47.944Z,24.70
2018-06-30T23:38:51.671Z,24.70
2018-06-30T23:48:59.213Z,24.70
2018-06-30T23:54:02.875Z,24.70
2018-06-30T23:59:06.801Z,24.70
